Wildcat, Kentucky
Current Conditions -  °F | °C
As of 7:53 PM on Wednesday 17 Dec 2014 (Local Time) from KLOZ Reporting Station
Clear Clear  
Wind Chill: 32°   Ceiling: Unl
Heat Index: 32°   Visibility: 10mi
Dew Point: 25°   Wind: 0mph
Humidity: 75%   Direction: NA
Pressure: 30.22"   Gusts: NA
Location:  37.1101°N, 83.7537°W
Report Text: KLOZ 180053Z AUTO 00000KT 10SM CLR 00/M04 A3022 RMK AO2 SLP241 T00001039
Loading
Personal Weather Stations






























Interactive Weather Map New forecast layout! Learn more

10-Day Weather Forecast

Advertisements
Track Severe Weather on mobile